Time;durP1;ratioP1;P1;durP2;ratioP2;P2;SDS_P1;SDS_P2;PMS_P1;PMS_P2;Temp;Humidity;BMP_temperature;BMP_pressure;BME280_temperature;BME280_humidity;BME280_pressure;Samples;Min_cycle;Max_cycle;Signal;HPM_P1;HPM_P2
2020/12/27 00:01:39;;;;;;;6.55;3.88;;;;;;;-2.47;68.50;95349.78;4992192;28;20031;-73
2020/12/27 00:04:05;;;;;;;4.20;3.40;;;;;;;-2.54;68.53;95329.03;4990953;28;20031;-73
2020/12/27 00:06:31;;;;;;;4.55;3.65;;;;;;;-2.55;69.09;95324.03;4992131;28;20039;-73
2020/12/27 00:08:57;;;;;;;4.63;3.53;;;;;;;-2.54;68.96;95318.59;4991817;28;20037;-73
2020/12/27 00:11:22;;;;;;;4.38;3.25;;;;;;;-2.45;68.65;95325.13;4991914;28;20105;-74
2020/12/27 00:13:47;;;;;;;3.75;3.38;;;;;;;-2.53;67.98;95319.41;4993933;28;20456;-73
2020/12/27 00:16:13;;;;;;;5.03;3.55;;;;;;;-2.63;68.35;95289.44;4992081;28;20121;-73
2020/12/27 00:18:38;;;;;;;5.35;3.75;;;;;;;-2.69;69.03;95292.94;4990292;28;20046;-73
2020/12/27 00:21:11;;;;;;;4.50;3.22;;;;;;;-2.62;68.64;95301.44;4991937;28;20459;-73
2020/12/27 00:23:36;;;;;;;4.20;3.00;;;;;;;-2.74;68.83;95277.16;4991852;28;20392;-72
2020/12/27 00:26:08;;;;;;;5.15;3.63;;;;;;;-2.65;69.42;95280.28;4993666;28;20096;-72
2020/12/27 00:28:33;;;;;;;3.50;2.88;;;;;;;-2.69;69.29;95274.69;4990032;28;20050;-72
2020/12/27 00:30:59;;;;;;;5.70;3.50;;;;;;;-2.72;68.43;95275.13;4991466;28;20034;-72
2020/12/27 00:33:24;;;;;;;4.78;3.58;;;;;;;-2.74;68.90;95260.75;4991325;28;20476;-73
2020/12/27 00:35:49;;;;;;;4.07;3.28;;;;;;;-2.78;69.15;95264.78;4991575;28;20104;-73
2020/12/27 00:38:15;;;;;;;5.78;3.22;;;;;;;-2.72;68.57;95266.53;4993239;28;20054;-73
2020/12/27 00:40:40;;;;;;;5.07;3.58;;;;;;;-2.71;68.73;95270.75;4990315;28;20038;-72
2020/12/27 00:43:05;;;;;;;3.78;3.38;;;;;;;-2.72;68.67;95258.72;4991276;28;20056;-73
2020/12/27 00:45:31;;;;;;;4.78;3.13;;;;;;;-2.76;68.81;95249.78;4991514;28;20038;-73
2020/12/27 00:47:56;;;;;;;4.55;3.38;;;;;;;-2.74;68.71;95253.72;4991276;28;20054;-73
2020/12/27 00:50:21;;;;;;;6.88;3.40;;;;;;;-2.71;68.71;95242.09;4989978;28;20468;-72
2020/12/27 00:52:46;;;;;;;4.43;3.10;;;;;;;-2.75;68.34;95233.91;4993159;28;20080;-73
2020/12/27 00:55:14;;;;;;;3.72;3.15;;;;;;;-2.77;67.70;95220.31;4991728;28;20031;-75
2020/12/27 00:57:40;;;;;;;3.47;3.17;;;;;;;-2.73;68.36;95233.69;4991747;28;20492;-78
2020/12/27 01:00:05;;;;;;;6.30;3.00;;;;;;;-2.71;67.07;95239.50;4991830;28;20045;-80
2020/12/27 01:02:30;;;;;;;4.22;3.40;;;;;;;-2.90;67.60;95220.47;4992452;28;20049;-79
2020/12/27 01:04:56;;;;;;;3.38;3.00;;;;;;;-2.89;67.36;95224.66;4993538;28;20030;-74
2020/12/27 01:07:21;;;;;;;4.85;3.50;;;;;;;-2.96;67.44;95218.75;4992018;28;20092;-80
2020/12/27 01:09:55;;;;;;;4.32;3.13;;;;;;;-2.93;67.61;95237.31;4991355;28;20050;-80
2020/12/27 01:12:21;;;;;;;3.85;2.92;;;;;;;-3.01;67.45;95224.59;4992465;28;20396;-79
2020/12/27 01:14:46;;;;;;;3.85;3.08;;;;;;;-2.99;67.83;95229.59;4992295;28;20042;-79
2020/12/27 01:17:12;;;;;;;3.45;2.97;;;;;;;-3.06;67.95;95218.47;4994459;28;20084;-79
2020/12/27 01:19:37;;;;;;;4.53;3.22;;;;;;;-3.06;68.50;95218.47;4992565;28;20492;-80
2020/12/27 01:22:08;;;;;;;3.92;2.88;;;;;;;-3.07;68.24;95209.88;4992607;28;20560;-80
2020/12/27 01:24:33;;;;;;;4.13;3.05;;;;;;;-3.16;68.73;95205.94;4992224;28;20038;-78
2020/12/27 01:26:59;;;;;;;3.42;2.92;;;;;;;-3.14;68.40;95212.50;4990717;28;20460;-78
2020/12/27 01:29:24;;;;;;;3.63;2.88;;;;;;;-3.19;68.54;95207.16;4990512;28;20048;-80
2020/12/27 01:31:49;;;;;;;2.60;2.40;;;;;;;-3.10;68.46;95215.50;4993641;28;20076;-80
2020/12/27 01:34:15;;;;;;;3.55;2.80;;;;;;;-3.27;68.36;95185.88;4991710;28;20030;-79
2020/12/27 01:36:41;;;;;;;2.65;2.45;;;;;;;-3.11;68.73;95211.31;4991979;28;20125;-79
2020/12/27 01:39:09;;;;;;;5.43;2.60;;;;;;;-3.13;68.42;95201.09;4990176;28;20058;-78
2020/12/27 01:41:35;;;;;;;4.82;2.95;;;;;;;-3.23;68.26;95176.59;4991476;28;20022;-78
2020/12/27 01:44:05;;;;;;;4.68;2.83;;;;;;;-3.20;67.87;95184.75;4992002;28;20027;-80
2020/12/27 01:46:32;;;;;;;4.50;3.40;;;;;;;-3.30;68.26;95174.06;4990238;28;20054;-77
2020/12/27 01:48:58;;;;;;;5.15;3.35;;;;;;;-3.24;68.62;95188.81;4988987;28;20096;-74
2020/12/27 01:51:23;;;;;;;3.10;2.65;;;;;;;-3.37;68.91;95162.16;4990344;28;20070;-76
2020/12/27 01:53:48;;;;;;;2.80;2.50;;;;;;;-3.37;68.22;95162.94;4990216;28;20121;-73
2020/12/27 01:56:17;;;;;;;4.72;2.78;;;;;;;-3.32;68.49;95157.91;4992280;28;20062;-74
2020/12/27 01:58:45;;;;;;;3.17;2.80;;;;;;;-3.40;68.43;95132.16;4989200;28;20045;-74
2020/12/27 02:01:11;;;;;;;3.92;2.90;;;;;;;-3.39;68.99;95125.94;4989976;28;20038;-74
2020/12/27 02:03:37;;;;;;;4.32;2.55;;;;;;;-3.64;68.61;95083.63;4990990;28;20480;-76
2020/12/27 02:06:03;;;;;;;5.57;2.85;;;;;;;-3.33;68.97;95135.47;4994336;28;20049;-75
2020/12/27 02:08:28;;;;;;;3.88;3.00;;;;;;;-3.41;68.10;95123.56;4993720;28;20391;-75
2020/12/27 02:10:55;;;;;;;4.25;2.92;;;;;;;-3.40;69.00;95119.94;4994454;28;20125;-75
2020/12/27 02:13:21;;;;;;;4.63;2.80;;;;;;;-3.39;68.93;95118.13;4993194;28;20035;-73
2020/12/27 02:15:46;;;;;;;4.55;2.97;;;;;;;-3.37;68.97;95116.13;4992232;28;20504;-75
2020/12/27 02:18:11;;;;;;;3.30;3.00;;;;;;;-3.46;69.00;95088.81;4993322;28;20039;-75
2020/12/27 02:20:37;;;;;;;3.80;2.80;;;;;;;-3.45;68.85;95078.19;4992740;28;21910;-74
2020/12/27 02:23:04;;;;;;;3.35;2.80;;;;;;;-3.44;69.07;95063.38;4994821;28;20662;-75
2020/12/27 02:25:29;;;;;;;4.30;2.75;;;;;;;-3.52;69.14;95053.31;4992159;28;20076;-75
2020/12/27 02:27:55;;;;;;;5.05;2.55;;;;;;;-3.46;69.16;95047.22;4993538;28;20101;-75
2020/12/27 02:30:20;;;;;;;4.05;3.40;;;;;;;-3.44;69.05;95047.78;4992994;28;20121;-76
2020/12/27 02:32:45;;;;;;;2.75;2.50;;;;;;;-3.42;68.86;95040.56;4992993;28;20042;-74
2020/12/27 02:35:11;;;;;;;3.72;2.92;;;;;;;-3.48;68.91;95026.66;4995386;28;20034;-74
2020/12/27 02:37:36;;;;;;;3.20;2.85;;;;;;;-3.41;69.00;95029.16;4993271;28;20133;-75
2020/12/27 02:40:02;;;;;;;4.40;3.05;;;;;;;-3.41;69.07;95031.75;4993169;28;20045;-73
2020/12/27 02:42:27;;;;;;;5.63;3.17;;;;;;;-3.48;68.78;95023.22;4975608;28;20100;-74
2020/12/27 02:47:26;;;;;;;3.45;2.83;;;;;;;-3.43;69.02;95015.56;4993397;28;20045;-74
2020/12/27 02:49:52;;;;;;;3.67;3.10;;;;;;;-3.40;68.86;95008.13;4995035;28;20030;-75
2020/12/27 02:52:17;;;;;;;2.90;2.58;;;;;;;-3.51;68.76;94990.69;4993062;28;20039;-76
2020/12/27 02:54:42;;;;;;;3.47;2.83;;;;;;;-3.51;69.04;94980.28;4993387;28;20657;-75
2020/12/27 02:57:08;;;;;;;4.10;3.03;;;;;;;-3.52;68.71;94983.09;4993303;28;20038;-73
2020/12/27 02:59:33;;;;;;;2.80;2.35;;;;;;;-3.45;68.75;94978.59;4993097;28;20114;-74
2020/12/27 03:01:58;;;;;;;2.92;2.40;;;;;;;-3.57;68.98;94946.56;4994871;28;20121;-74
2020/12/27 03:04:23;;;;;;;7.80;4.78;;;;;;;-3.47;68.64;94967.63;4993106;28;20038;-75
2020/12/27 03:06:49;;;;;;;6.13;3.05;;;;;;;-3.78;68.85;94916.66;4992006;28;20130;-73
2020/12/27 03:09:15;;;;;;;4.10;3.42;;;;;;;-3.49;68.93;94951.44;4991854;28;20038;-74
2020/12/27 03:11:40;;;;;;;3.22;2.92;;;;;;;-3.47;68.85;94952.03;4992920;28;20034;-75
2020/12/27 03:14:07;;;;;;;5.32;3.28;;;;;;;-3.48;69.19;94947.81;4994850;28;20037;-73
2020/12/27 03:16:33;;;;;;;3.70;3.05;;;;;;;-3.42;69.07;94958.16;4991624;28;20456;-74
2020/12/27 03:18:58;;;;;;;2.85;2.58;;;;;;;-3.47;68.85;94939.81;4992503;28;20053;-74
2020/12/27 03:21:23;;;;;;;3.70;3.08;;;;;;;-3.50;68.56;94927.25;4991126;28;20038;-74
2020/12/27 03:23:49;;;;;;;3.65;3.15;;;;;;;-3.50;68.65;94922.06;4992854;28;20133;-74
2020/12/27 03:26:14;;;;;;;4.88;3.08;;;;;;;-3.48;68.77;94919.22;4993521;28;20030;-73
2020/12/27 03:28:39;;;;;;;3.72;2.92;;;;;;;-3.64;68.75;94891.25;4991278;28;20046;-74
2020/12/27 03:31:05;;;;;;;3.15;2.60;;;;;;;-3.53;68.93;94903.50;4991403;28;20042;-73
2020/12/27 03:33:30;;;;;;;3.75;2.78;;;;;;;-3.44;68.91;94904.78;4992532;28;20030;-75
2020/12/27 03:35:55;;;;;;;4.43;2.78;;;;;;;-3.55;68.71;94901.13;4992796;28;20058;-75
2020/12/27 03:38:21;;;;;;;3.25;2.95;;;;;;;-3.54;68.90;94901.91;4990975;28;20553;-74
2020/12/27 03:40:46;;;;;;;2.95;2.67;;;;;;;-3.50;68.93;94908.25;4993105;28;20046;-75
2020/12/27 03:43:11;;;;;;;3.63;2.90;;;;;;;-3.52;69.03;94894.69;4992451;28;20129;-75
2020/12/27 03:45:38;;;;;;;3.00;2.70;;;;;;;-3.47;69.37;94894.84;4992438;28;20038;-74
2020/12/27 03:48:04;;;;;;;3.70;2.80;;;;;;;-3.48;69.03;94888.03;4990983;28;20038;-74
2020/12/27 03:50:29;;;;;;;4.30;3.03;;;;;;;-3.53;68.73;94878.31;4991959;28;20026;-75
2020/12/27 03:52:54;;;;;;;4.03;3.00;;;;;;;-3.47;68.87;94876.63;4992613;28;20033;-75
2020/12/27 03:55:20;;;;;;;3.50;2.80;;;;;;;-3.53;68.73;94860.13;4992357;28;20137;-73
2020/12/27 03:57:45;;;;;;;3.38;2.85;;;;;;;-3.54;68.81;94849.91;4992036;28;20038;-73
2020/12/27 04:00:10;;;;;;;4.82;3.25;;;;;;;-3.52;68.35;94847.91;4991817;28;20030;-75
2020/12/27 04:02:35;;;;;;;3.70;3.05;;;;;;;-3.53;68.59;94846.28;4991831;28;20133;-75
2020/12/27 04:05:01;;;;;;;3.42;2.80;;;;;;;-3.52;68.36;94851.28;4994032;28;20030;-73
2020/12/27 04:07:30;;;;;;;3.08;2.58;;;;;;;-3.50;68.59;94845.88;4991928;28;20113;-74
2020/12/27 04:09:55;;;;;;;5.07;3.00;;;;;;;-3.49;68.46;94840.44;4991648;28;20484;-73
2020/12/27 04:12:20;;;;;;;3.65;2.78;;;;;;;-3.51;68.87;94826.09;4991685;28;20041;-72
2020/12/27 04:14:46;;;;;;;3.15;2.85;;;;;;;-3.53;68.79;94823.72;4990445;28;20039;-74
2020/12/27 04:17:11;;;;;;;4.63;3.20;;;;;;;-3.50;68.30;94819.88;4993779;28;20113;-75
2020/12/27 04:19:36;;;;;;;5.20;2.90;;;;;;;-3.50;68.47;94815.44;4991466;28;20047;-75
2020/12/27 04:22:02;;;;;;;3.85;3.10;;;;;;;-3.50;68.41;94809.47;4991580;28;20548;-73
2020/12/27 04:24:27;;;;;;;3.30;2.67;;;;;;;-3.57;68.34;94793.97;4990666;28;20127;-74
2020/12/27 04:26:53;;;;;;;3.20;2.50;;;;;;;-3.49;68.75;94798.84;4991337;28;20076;-74
2020/12/27 04:29:18;;;;;;;3.20;2.90;;;;;;;-3.59;68.87;94774.41;4991085;28;20034;-75
2020/12/27 04:31:43;;;;;;;3.88;2.85;;;;;;;-3.56;68.82;94773.97;4993288;28;20109;-75
2020/12/27 04:34:08;;;;;;;4.65;3.05;;;;;;;-3.57;68.41;94767.19;4991681;28;20054;-74
2020/12/27 04:36:34;;;;;;;3.78;2.75;;;;;;;-3.47;68.96;94777.81;4990216;28;20393;-74
2020/12/27 04:38:59;;;;;;;2.83;2.55;;;;;;;-3.48;68.71;94771.03;4989735;28;20053;-74
2020/12/27 04:41:24;;;;;;;3.15;2.80;;;;;;;-3.54;68.43;94759.72;4991064;28;20034;-74
2020/12/27 04:43:50;;;;;;;3.10;2.80;;;;;;;-3.54;68.57;94761.53;4993227;28;20084;-73
2020/12/27 04:46:17;;;;;;;3.08;2.78;;;;;;;-3.56;68.57;94755.78;4989902;28;20464;-74
2020/12/27 04:48:44;;;;;;;3.75;2.72;;;;;;;-3.56;68.11;94758.38;4990757;28;20086;-74
2020/12/27 04:51:11;;;;;;;3.25;2.42;;;;;;;-3.58;68.85;94750.81;4990916;28;20034;-73
2020/12/27 04:53:37;;;;;;;4.35;2.97;;;;;;;-3.55;68.91;94744.34;4990673;28;20030;-74
2020/12/27 04:56:04;;;;;;;3.97;2.80;;;;;;;-3.55;68.77;94729.53;4992993;28;20117;-75
2020/12/27 04:58:30;;;;;;;3.83;3.10;;;;;;;-3.69;68.69;94710.75;4990744;28;20121;-73
2020/12/27 05:00:56;;;;;;;3.60;2.50;;;;;;;-3.65;68.68;94711.13;4990993;28;20543;-73
2020/12/27 05:03:21;;;;;;;3.70;2.72;;;;;;;-3.60;68.35;94703.44;4989390;28;20031;-73
2020/12/27 05:05:51;;;;;;;3.80;2.50;;;;;;;-3.60;68.15;94710.44;4990306;28;20057;-72
2020/12/27 05:08:17;;;;;;;3.00;2.50;;;;;;;-3.53;68.37;94726.72;4990330;28;20046;-71
2020/12/27 05:10:44;;;;;;;2.88;2.58;;;;;;;-3.56;68.11;94714.97;4992695;28;20534;-73
2020/12/27 05:13:13;;;;;;;3.40;2.45;;;;;;;-3.73;68.62;94695.88;4990442;28;20101;-74
2020/12/27 05:15:39;;;;;;;3.33;2.53;;;;;;;-3.62;68.18;94707.28;4990724;28;20042;-74
2020/12/27 05:18:05;;;;;;;5.40;2.85;;;;;;;-3.66;68.64;94699.13;4989159;28;20042;-74
2020/12/27 05:20:31;;;;;;;3.40;2.42;;;;;;;-3.55;68.54;94710.56;4990185;28;20030;-74
2020/12/27 05:23:05;;;;;;;3.58;2.67;;;;;;;-3.52;68.21;94702.31;4992065;28;20041;-74
2020/12/27 05:25:40;;;;;;;4.25;2.72;;;;;;;-3.55;68.33;94707.97;4990510;28;20038;-72
2020/12/27 05:28:11;;;;;;;2.95;2.65;;;;;;;-3.61;67.96;94703.66;4988836;28;20105;-72
2020/12/27 05:30:42;;;;;;;2.50;2.30;;;;;;;-3.62;68.11;94702.09;4990300;28;20117;-73
2020/12/27 05:33:17;;;;;;;4.40;2.70;;;;;;;-3.57;67.86;94716.00;4990197;28;20121;-74
2020/12/27 05:35:43;;;;;;;3.15;2.35;;;;;;;-3.75;68.38;94695.28;4990401;28;20050;-72
2020/12/27 05:38:10;;;;;;;2.70;2.42;;;;;;;-3.67;67.89;94716.53;4991241;28;20085;-73
2020/12/27 05:40:38;;;;;;;3.50;2.75;;;;;;;-3.67;68.33;94713.94;4988897;28;20121;-73
2020/12/27 05:43:22;;;;;;;3.92;2.10;;;;;;;-3.69;68.05;94708.16;4988443;28;20481;-72
2020/12/27 05:45:47;;;;;;;3.00;2.35;;;;;;;-3.75;68.05;94692.69;4990103;28;20042;-72
2020/12/27 05:48:13;;;;;;;3.55;2.63;;;;;;;-3.77;68.29;94690.31;4989761;28;20061;-73
2020/12/27 05:50:41;;;;;;;3.10;2.40;;;;;;;-3.72;67.96;94700.84;4988981;28;20100;-73
2020/12/27 05:53:23;;;;;;;3.55;2.47;;;;;;;-3.78;68.03;94687.97;4991874;28;20030;-74
2020/12/27 05:55:52;;;;;;;4.93;2.38;;;;;;;-3.69;67.88;94687.38;4990644;28;20089;-74
2020/12/27 05:58:24;;;;;;;2.65;2.45;;;;;;;-3.69;67.75;94679.56;4988311;28;20042;-73
2020/12/27 06:00:58;;;;;;;2.40;1.85;;;;;;;-3.78;67.96;94660.16;4989943;28;20039;-73
2020/12/27 06:03:30;;;;;;;4.35;2.30;;;;;;;-3.76;67.56;94670.31;4989712;28;20023;-73
2020/12/27 06:05:58;;;;;;;3.30;2.50;;;;;;;-3.77;68.11;94658.34;4989928;28;20062;-73
2020/12/27 06:08:29;;;;;;;3.28;2.63;;;;;;;-3.77;67.99;94663.56;4988334;28;20508;-73
2020/12/27 06:10:58;;;;;;;3.73;2.70;;;;;;;-3.85;68.02;94649.06;4991940;28;20098;-72
2020/12/27 06:13:42;;;;;;;2.95;2.60;;;;;;;-3.78;68.10;94652.38;4989498;28;20111;-73
2020/12/27 06:16:12;;;;;;;4.53;2.60;;;;;;;-3.78;68.45;94652.38;4989921;28;20038;-74
2020/12/27 06:18:39;;;;;;;3.65;2.45;;;;;;;-3.85;68.07;94632.69;4988054;28;20038;-73
2020/12/27 06:21:11;;;;;;;2.72;2.42;;;;;;;-3.79;68.14;94637.75;4988369;28;20158;-73
2020/12/27 06:23:38;;;;;;;2.53;2.30;;;;;;;-3.84;68.67;94627.25;4989755;28;20053;-74
2020/12/27 06:26:06;;;;;;;3.20;2.58;;;;;;;-3.84;68.07;94622.06;4991735;28;20085;-74
2020/12/27 06:28:32;;;;;;;3.90;2.60;;;;;;;-3.78;68.19;94620.41;4989433;28;20043;-74
2020/12/27 06:31:02;;;;;;;5.45;2.63;;;;;;;-3.81;68.51;94613.81;4988430;28;20031;-74
2020/12/27 06:33:33;;;;;;;3.25;2.42;;;;;;;-3.81;68.28;94613.03;4989713;28;20034;-75
2020/12/27 06:35:58;;;;;;;2.97;2.38;;;;;;;-3.80;67.78;94606.81;4989809;28;20053;-75
2020/12/27 06:38:25;;;;;;;3.03;2.72;;;;;;;-3.92;67.84;94578.25;4989138;28;20031;-74
2020/12/27 06:41:04;;;;;;;3.70;2.60;;;;;;;-3.79;68.02;94595.41;4991227;28;20026;-74
2020/12/27 06:43:40;;;;;;;3.15;2.60;;;;;;;-3.82;68.18;94580.28;4989554;28;20043;-74
2020/12/27 06:46:26;;;;;;;2.55;2.17;;;;;;;-3.88;68.37;94563.81;4989673;28;20042;-77
2020/12/27 06:49:14;;;;;;;3.20;2.38;;;;;;;-4.15;68.00;94513.31;4987887;28;20448;-73
2020/12/27 06:51:40;;;;;;;3.63;2.78;;;;;;;-3.81;68.03;94567.06;4991787;28;20050;-73
2020/12/27 06:54:06;;;;;;;3.67;2.35;;;;;;;-3.90;67.63;94544.25;4993104;28;20381;-73
2020/12/27 06:56:46;;;;;;;2.70;2.10;;;;;;;-3.86;68.56;94540.97;4991899;28;20030;-75
2020/12/27 06:59:11;;;;;;;1.85;1.75;;;;;;;-3.77;68.27;94550.00;4994808;28;20042;-73
2020/12/27 07:01:37;;;;;;;2.20;2.00;;;;;;;-3.78;67.82;94538.03;4992969;28;20170;-75
2020/12/27 07:04:14;;;;;;;3.80;1.90;;;;;;;-3.71;68.05;94540.50;4993219;28;20093;-74
2020/12/27 07:06:41;;;;;;;2.25;2.03;;;;;;;-3.71;67.84;94540.50;4992775;28;20054;-75
2020/12/27 07:09:06;;;;;;;2.75;2.13;;;;;;;-3.76;67.40;94543.78;4991074;28;20053;-73
2020/12/27 07:11:32;;;;;;;2.40;2.08;;;;;;;-3.68;67.30;94548.63;4992686;28;20118;-74
2020/12/27 07:13:58;;;;;;;2.08;1.83;;;;;;;-3.73;67.81;94530.34;4993558;28;20026;-74
2020/12/27 07:16:54;;;;;;;2.45;1.92;;;;;;;-3.60;67.29;94541.47;4992633;28;20045;-75
2020/12/27 07:19:19;;;;;;;2.35;2.00;;;;;;;-3.58;67.24;94540.25;4985747;28;20054;-73
2020/12/27 07:21:46;;;;;;;4.75;1.70;;;;;;;-3.62;67.20;94536.53;4992424;28;20050;-73
2020/12/27 07:24:12;;;;;;;2.00;1.80;;;;;;;-3.54;67.31;94540.56;4992374;28;20034;-73
2020/12/27 07:26:43;;;;;;;2.42;2.00;;;;;;;-3.82;67.79;94523.91;4992510;28;20049;-74
2020/12/27 07:29:10;;;;;;;2.75;1.98;;;;;;;-3.67;67.74;94507.81;4994146;28;20030;-75
2020/12/27 07:31:38;;;;;;;2.50;1.90;;;;;;;-3.51;67.16;94517.50;4992235;28;20448;-73
2020/12/27 07:34:05;;;;;;;2.13;1.92;;;;;;;-3.49;67.01;94504.25;4992497;28;20035;-74
2020/12/27 07:36:33;;;;;;;2.75;1.60;;;;;;;-3.47;67.38;94482.22;4990986;28;20030;-74
2020/12/27 07:39:04;;;;;;;3.58;1.50;;;;;;;-3.20;66.71;94492.03;4991682;28;20057;-74
2020/12/27 07:41:36;;;;;;;2.23;2.00;;;;;;;-3.12;66.99;94481.28;4990687;28;20041;-73
2020/12/27 07:44:02;;;;;;;;;;;;;;;-3.00;66.52;94478.59;4994451;28;20269;-74
2020/12/27 07:46:28;;;;;;;1.60;1.50;;;;;;;-2.97;66.06;94465.91;4992071;28;20364;-74
2020/12/27 07:48:54;;;;;;;2.47;1.55;;;;;;;-2.80;65.64;94471.13;4990222;28;20050;-75
2020/12/27 07:51:24;;;;;;;1.95;1.50;;;;;;;-2.70;65.56;94479.09;4991672;28;20077;-74
2020/12/27 07:53:52;;;;;;;1.73;1.40;;;;;;;-2.69;65.36;94452.00;4992158;28;20034;-73
2020/12/27 07:56:21;;;;;;;2.95;1.80;;;;;;;-2.58;65.21;94444.34;4991924;28;20137;-73
2020/12/27 07:58:52;;;;;;;1.70;1.60;;;;;;;-2.34;65.22;94452.78;4992263;28;20031;-75
2020/12/27 08:01:19;;;;;;;1.85;1.73;;;;;;;-2.30;64.90;94430.41;4991465;28;20070;-75
2020/12/27 08:03:50;;;;;;;4.18;2.22;;;;;;;-2.13;64.31;94429.34;4991979;28;20089;-74
2020/12/27 08:06:17;;;;;;;3.15;2.20;;;;;;;-2.08;64.68;94412.19;4991860;28;20030;-74
2020/12/27 08:08:43;;;;;;;2.58;2.00;;;;;;;-1.87;63.58;94419.22;4991467;28;20038;-75
2020/12/27 08:11:20;;;;;;;2.38;2.05;;;;;;;-1.86;63.66;94398.13;4993652;28;20511;-75
2020/12/27 08:13:50;;;;;;;3.15;2.35;;;;;;;-1.61;63.43;94408.03;4991003;28;20034;-74
2020/12/27 08:16:15;;;;;;;2.17;1.98;;;;;;;-1.58;63.25;94378.06;4990136;28;20065;-73
2020/12/27 08:18:41;;;;;;;2.60;2.10;;;;;;;-1.43;63.00;94382.66;4989379;28;20487;-71
2020/12/27 08:21:06;;;;;;;1.85;1.70;;;;;;;-1.36;62.50;94367.56;4989646;28;20038;-72
2020/12/27 08:23:31;;;;;;;2.70;2.28;;;;;;;-1.28;62.27;94356.66;4990816;28;20030;-73
2020/12/27 08:26:00;;;;;;;2.70;2.30;;;;;;;-1.17;62.88;94352.34;4993338;28;20113;-72
2020/12/27 08:28:26;;;;;;;1.60;1.50;;;;;;;-1.09;61.96;94350.03;4990591;28;20056;-74
2020/12/27 08:30:51;;;;;;;2.85;2.05;;;;;;;-0.94;62.32;94351.97;4990881;28;20038;-71
2020/12/27 08:33:18;;;;;;;3.33;1.98;;;;;;;-0.88;61.88;94334.50;4989769;28;20073;-73
2020/12/27 08:35:45;;;;;;;7.05;1.67;;;;;;;-0.72;62.11;94335.38;4991971;28;20093;-74
2020/12/27 08:38:21;;;;;;;1.65;1.55;;;;;;;-0.70;61.53;94318.44;4993563;28;20057;-80
2020/12/27 08:41:14;;;;;;;1.83;1.70;;;;;;;-0.52;61.95;94318.00;4993089;28;20049;-81
2020/12/27 08:43:42;;;;;;;;;;;;;;;-0.33;61.24;94330.63;4991939;28;20039;-75
2020/12/27 08:46:11;;;;;;;2.88;2.00;;;;;;;-0.22;60.98;94332.22;4990492;28;19968;-73
2020/12/27 08:49:01;;;;;;;4.07;1.75;;;;;;;-0.08;60.73;94322.88;4990925;28;20534;-72
2020/12/27 08:51:33;;;;;;;1.63;1.33;;;;;;;0.04;60.36;94320.03;4990779;28;20523;-69
2020/12/27 08:53:59;;;;;;;1.73;1.52;;;;;;;0.08;60.43;94307.22;4991845;28;20513;-76
2020/12/27 08:56:25;;;;;;;2.33;1.40;;;;;;;0.22;59.78;94292.63;4991612;28;20411;-74
2020/12/27 08:58:54;;;;;;;2.80;2.20;;;;;;;0.26;60.79;94291.06;4992428;28;20026;-68
2020/12/27 09:01:27;;;;;;;2.28;2.00;;;;;;;0.60;59.39;94291.31;4990779;28;20039;-65
2020/12/27 09:03:53;;;;;;;2.50;2.28;;;;;;;0.81;58.88;94297.34;4991046;28;20038;-66
2020/12/27 09:06:18;;;;;;;2.35;2.10;;;;;;;0.95;57.88;94281.88;4991194;28;20044;-67
2020/12/27 09:08:44;;;;;;;1.70;1.60;;;;;;;1.08;56.51;94264.84;4991439;28;20030;-75
2020/12/27 09:11:09;;;;;;;1.75;1.52;;;;;;;1.23;56.81;94270.06;4993653;28;20026;-77
2020/12/27 09:13:36;;;;;;;1.58;1.48;;;;;;;1.32;56.86;94265.03;4990893;28;20041;-76
2020/12/27 09:16:02;;;;;;;2.35;1.92;;;;;;;1.38;57.08;94256.88;4991473;28;20560;-73
2020/12/27 09:18:33;;;;;;;2.75;2.10;;;;;;;1.41;56.61;94237.22;4990893;28;20046;-75
2020/12/27 09:21:01;;;;;;;2.47;1.80;;;;;;;1.56;56.04;94250.28;4991524;28;20042;-75
2020/12/27 09:23:26;;;;;;;2.28;1.85;;;;;;;1.57;55.54;94246.59;5001111;28;20018;-73
2020/12/27 09:26:06;;;;;;;1.77;1.60;;;;;;;1.50;55.37;94246.13;5001878;28;20111;-79
2020/12/27 09:28:33;;;;;;;4.63;1.98;;;;;;;1.57;55.07;94243.97;4992810;28;20054;-77
2020/12/27 09:31:06;;;;;;;2.47;1.98;;;;;;;1.65;54.23;94237.41;4991336;28;20047;-67
2020/12/27 09:33:37;;;;;;;2.80;2.25;;;;;;;1.73;53.95;94231.56;4990488;28;20044;-68
2020/12/27 09:36:06;;;;;;;2.83;1.90;;;;;;;1.86;54.06;94227.59;4991607;28;20037;-71
2020/12/27 09:38:49;;;;;;;2.50;2.10;;;;;;;1.92;54.25;94208.13;4990726;28;20034;-81
2020/12/27 09:41:18;;;;;;;2.85;2.00;;;;;;;2.00;53.86;94202.31;4992903;28;20054;-73
2020/12/27 09:44:03;;;;;;;2.50;2.03;;;;;;;2.12;53.53;94199.34;4991971;28;20503;-78
2020/12/27 09:46:46;;;;;;;2.40;2.20;;;;;;;2.18;54.00;94195.63;4991667;28;20098;-81
2020/12/27 09:49:22;;;;;;;2.80;2.50;;;;;;;2.22;54.01;94189.56;4990426;28;20661;-70
2020/12/27 09:52:07;;;;;;;3.97;2.20;;;;;;;2.28;53.56;94185.84;4990607;28;20090;-77
2020/12/27 09:54:33;;;;;;;2.05;1.70;;;;;;;2.36;53.74;94188.94;4990834;28;20042;-79
2020/12/27 09:57:11;;;;;;;2.63;2.13;;;;;;;2.34;53.34;94158.50;4991098;28;20046;-77
2020/12/27 09:59:36;;;;;;;3.00;1.60;;;;;;;2.41;52.36;94163.44;4991193;28;20050;-81
2020/12/27 10:02:03;;;;;;;1.80;1.65;;;;;;;2.50;52.71;94153.88;4991984;28;20031;-84
2020/12/27 10:04:28;;;;;;;3.47;1.98;;;;;;;2.57;52.63;94143.06;4990925;28;20112;-73
2020/12/27 10:06:53;;;;;;;3.92;2.03;;;;;;;2.61;53.20;94128.34;4990731;28;20046;-70
2020/12/27 10:09:18;;;;;;;2.08;1.80;;;;;;;2.60;52.52;94103.13;4988743;28;20034;-73
2020/12/27 10:11:44;;;;;;;2.28;1.90;;;;;;;2.67;52.87;94095.72;4990276;28;20088;-72
2020/12/27 10:14:09;;;;;;;2.58;1.77;;;;;;;2.75;52.74;94099.56;4992211;28;20400;-73
2020/12/27 10:16:34;;;;;;;2.40;1.90;;;;;;;2.91;52.36;94100.94;4990581;28;20125;-72
2020/12/27 10:18:59;;;;;;;2.90;1.58;;;;;;;2.91;52.29;94082.56;4989974;28;20077;-69
2020/12/27 10:21:25;;;;;;;2.20;1.83;;;;;;;3.00;51.89;94080.88;4989980;28;20473;-80
2020/12/27 10:23:50;;;;;;;2.22;2.03;;;;;;;3.05;51.82;94082.66;4991953;28;20042;-83
2020/12/27 10:26:15;;;;;;;3.92;1.90;;;;;;;3.10;52.45;94061.56;4997244;28;20460;-84
2020/12/27 10:28:41;;;;;;;1.65;1.55;;;;;;;3.23;51.77;94055.63;4995481;28;20049;-83
2020/12/27 10:31:08;;;;;;;2.58;1.50;;;;;;;3.34;52.12;94035.25;4995911;28;20116;-82
2020/12/27 10:33:34;;;;;;;1.48;1.33;;;;;;;3.29;51.63;94007.19;4994849;28;20400;-76
2020/12/27 10:35:59;;;;;;;5.30;1.65;;;;;;;3.43;51.40;94004.63;4994384;28;20041;-78
2020/12/27 10:38:24;;;;;;;1.77;1.67;;;;;;;3.50;49.54;94002.41;4994110;28;20181;-76
2020/12/27 10:40:49;;;;;;;3.92;1.80;;;;;;;3.43;50.44;93988.84;4995847;28;20105;-77
2020/12/27 10:43:15;;;;;;;2.83;1.52;;;;;;;3.41;49.75;93974.41;4993921;28;20038;-78
2020/12/27 10:45:41;;;;;;;2.80;1.70;;;;;;;3.58;48.93;93993.06;4994312;28;20141;-73
2020/12/27 10:48:06;;;;;;;2.03;1.83;;;;;;;3.51;49.37;93969.78;4993715;28;20026;-75
2020/12/27 10:50:32;;;;;;;2.17;1.52;;;;;;;3.58;49.30;93972.84;4992704;28;20488;-73
2020/12/27 10:52:57;;;;;;;2.35;2.08;;;;;;;3.54;49.68;93960.53;4995969;28;20428;-79
2020/12/27 10:55:22;;;;;;;3.42;2.03;;;;;;;3.63;49.21;93971.94;4994088;28;20125;-81
2020/12/27 10:57:47;;;;;;;4.18;1.92;;;;;;;3.67;49.35;93966.91;4993038;28;20054;-72
2020/12/27 11:00:13;;;;;;;2.33;1.80;;;;;;;3.43;47.59;93965.19;4992056;28;20088;-72
2020/12/27 11:02:38;;;;;;;3.53;2.00;;;;;;;3.46;47.39;93953.31;4993193;28;20042;-75
2020/12/27 11:05:03;;;;;;;5.28;1.77;;;;;;;3.58;47.99;93956.25;4995182;28;20162;-74
2020/12/27 11:07:28;;;;;;;2.97;1.75;;;;;;;3.63;48.71;93948.28;4993127;28;20057;-73
2020/12/27 11:09:54;;;;;;;4.85;2.22;;;;;;;3.74;48.99;93959.44;4993093;28;20034;-72
2020/12/27 11:12:19;;;;;;;4.82;1.83;;;;;;;3.79;48.35;93949.59;4993224;28;20045;-69
2020/12/27 11:14:44;;;;;;;1.83;1.38;;;;;;;3.77;48.03;93935.16;4993123;28;20062;-72
2020/12/27 11:17:10;;;;;;;7.28;1.92;;;;;;;3.89;47.91;93940.75;4994985;28;20026;-67
2020/12/27 11:19:35;;;;;;;5.78;1.60;;;;;;;3.88;48.11;93928.63;4992717;28;20042;-69
2020/12/27 11:22:00;;;;;;;2.72;1.65;;;;;;;3.89;48.20;93925.75;4992815;28;20481;-69
2020/12/27 11:24:25;;;;;;;2.80;1.90;;;;;;;3.87;46.54;93921.81;4994104;28;20507;-67
2020/12/27 11:26:54;;;;;;;2.33;1.45;;;;;;;3.94;46.08;93918.81;4992618;28;20047;-69
2020/12/27 11:29:19;;;;;;;3.35;1.60;;;;;;;3.99;47.31;93910.81;4991704;28;20030;-75
2020/12/27 11:31:45;;;;;;;5.18;1.35;;;;;;;3.93;46.26;93881.19;4994679;28;20448;-75
2020/12/27 11:34:10;;;;;;;4.10;1.80;;;;;;;4.06;46.79;93880.44;4992646;28;20038;-75
2020/12/27 11:36:35;;;;;;;5.15;1.38;;;;;;;3.97;46.50;93842.72;4990420;28;20038;-72
2020/12/27 11:39:00;;;;;;;5.72;1.52;;;;;;;4.04;46.25;93832.56;4992576;28;20045;-71
2020/12/27 11:41:26;;;;;;;6.05;2.03;;;;;;;4.11;46.62;93826.91;4991128;28;20288;-74